Time;durP1;ratioP1;P1;durP2;ratioP2;P2;SDS_P1;SDS_P2;PMS_P1;PMS_P2;Temp;Humidity;BMP_temperature;BMP_pressure;BME280_temperature;BME280_humidity;BME280_pressure;Samples;Min_cycle;Max_cycle;Signal;HPM_P1;HPM_P2
2023/02/01 00:00:30;;;;;;;20.70;7.03;;;;;;;2.32;83.08;100112.66;124935;1102;102092;-80
2023/02/01 00:03:21;;;;;;;18.87;7.03;;;;;;;2.32;82.39;100103.97;124949;1102;104223;-82
2023/02/01 00:05:59;;;;;;;20.63;6.90;;;;;;;2.32;82.92;100106.55;124968;1102;104259;-82
2023/02/01 00:08:30;;;;;;;19.07;7.10;;;;;;;2.33;82.74;100108.36;124919;1102;104188;-80
2023/02/01 00:11:03;;;;;;;21.70;7.63;;;;;;;2.32;82.86;100104.88;124877;1102;103171;-81
2023/02/01 00:13:38;;;;;;;21.63;7.13;;;;;;;2.32;82.44;100109.14;124881;1102;104185;-83
2023/02/01 00:16:12;;;;;;;19.43;6.77;;;;;;;2.30;82.46;100103.88;124924;1102;104233;-82
2023/02/01 00:18:43;;;;;;;23.18;7.35;;;;;;;2.31;82.67;100099.61;124958;1102;111256;-83
2023/02/01 00:21:15;;;;;;;23.80;7.00;;;;;;;2.30;82.99;100097.81;124969;1102;101820;-83
2023/02/01 00:23:46;;;;;;;23.40;7.73;;;;;;;2.28;82.46;100091.66;124892;1101;102157;-82
2023/02/01 00:26:20;;;;;;;22.43;7.00;;;;;;;2.27;82.36;100095.03;124806;1102;104316;-82
2023/02/01 00:28:51;;;;;;;19.00;7.55;;;;;;;2.26;82.27;100095.81;124953;1102;104140;-83
2023/02/01 00:31:22;;;;;;;18.83;7.20;;;;;;;2.25;82.38;100084.58;124920;1102;102343;-81
2023/02/01 00:33:54;;;;;;;17.57;7.00;;;;;;;2.27;82.64;100089.85;124828;1102;102047;-82
2023/02/01 00:36:25;;;;;;;19.33;7.27;;;;;;;2.27;82.31;100088.14;124983;1102;104191;-82
2023/02/01 00:38:57;;;;;;;17.80;6.85;;;;;;;2.29;82.59;100085.65;124809;1102;104757;-82
2023/02/01 00:41:29;;;;;;;20.63;6.80;;;;;;;2.30;82.98;100082.27;125009;1102;104235;-82
2023/02/01 00:44:01;;;;;;;18.33;6.77;;;;;;;2.31;82.65;100063.36;124885;1102;104261;-79
2023/02/01 00:46:32;;;;;;;18.37;6.70;;;;;;;2.30;82.91;100041.73;124972;1102;104233;-82
2023/02/01 00:49:03;;;;;;;19.83;7.07;;;;;;;2.28;82.00;100048.52;124892;1102;102032;-80
2023/02/01 00:51:34;;;;;;;24.17;7.33;;;;;;;2.27;82.82;100053.60;124951;1102;104268;-82
2023/02/01 00:54:06;;;;;;;21.87;7.20;;;;;;;2.23;82.71;100044.77;124951;1102;104206;-81
2023/02/01 00:56:38;;;;;;;18.70;6.63;;;;;;;2.23;82.64;100054.20;125006;1102;102135;-82
2023/02/01 00:59:11;;;;;;;22.23;6.80;;;;;;;2.20;82.17;100079.91;124832;1102;104230;-81
2023/02/01 01:01:42;;;;;;;21.00;6.43;;;;;;;2.18;82.49;100086.69;124938;1102;101964;-83
2023/02/01 01:04:14;;;;;;;24.17;6.70;;;;;;;2.13;81.66;100084.70;124842;1102;101772;-82
2023/02/01 01:06:45;;;;;;;20.00;6.80;;;;;;;2.09;81.97;100081.85;124937;1102;102093;-80
2023/02/01 01:09:16;;;;;;;17.43;6.70;;;;;;;2.06;82.64;100086.84;124933;1101;104291;-79
2023/02/01 01:11:48;;;;;;;19.10;5.87;;;;;;;2.04;81.71;100078.97;124964;1102;104198;-82
2023/02/01 01:14:19;;;;;;;20.50;6.40;;;;;;;2.01;82.49;100073.60;124887;1102;102103;-81
2023/02/01 01:16:50;;;;;;;16.07;6.23;;;;;;;1.96;81.92;100070.73;124892;1102;104217;-81
2023/02/01 01:19:22;;;;;;;20.03;6.27;;;;;;;1.91;81.58;100066.93;124834;1101;102408;-81
2023/02/01 01:21:53;;;;;;;20.50;6.83;;;;;;;1.90;81.87;100064.25;124829;1102;104089;-81
2023/02/01 01:24:24;;;;;;;19.57;5.50;;;;;;;1.87;81.36;100067.55;125001;1102;104210;-80
2023/02/01 01:26:55;;;;;;;16.20;5.47;;;;;;;1.85;81.74;100070.83;124892;1102;104211;-82
2023/02/01 01:29:27;;;;;;;19.03;5.50;;;;;;;1.82;81.86;100066.34;124870;1102;104284;-82
2023/02/01 01:31:58;;;;;;;19.30;5.67;;;;;;;1.78;81.80;100073.03;124954;1102;104192;-80
2023/02/01 01:34:29;;;;;;;19.13;6.10;;;;;;;1.75;81.70;100069.36;124943;1102;101862;-82
2023/02/01 01:37:01;;;;;;;16.70;5.70;;;;;;;1.71;81.65;100068.25;124981;1102;101931;-84
2023/02/01 01:39:32;;;;;;;18.87;5.50;;;;;;;1.69;81.05;100063.80;124900;1102;104319;-82
2023/02/01 01:42:04;;;;;;;19.33;5.27;;;;;;;1.65;81.33;100067.85;124826;1102;104370;-81
2023/02/01 01:45:00;;;;;;;17.00;5.40;;;;;;;1.61;81.20;100071.06;124736;1102;104082;-81
2023/02/01 01:47:38;;;;;;;21.27;6.03;;;;;;;1.58;81.46;100070.86;124705;1102;102928;-81
2023/02/01 01:50:16;;;;;;;15.80;5.90;;;;;;;1.53;81.58;100070.56;125020;1102;104185;-80
2023/02/01 01:52:50;;;;;;;15.53;5.33;;;;;;;1.50;81.60;100072.06;124908;1102;102176;-81
2023/02/01 01:55:23;;;;;;;14.85;5.95;;;;;;;1.48;81.57;100073.64;124946;1102;104262;-79
2023/02/01 01:58:00;;;;;;;19.27;6.22;;;;;;;1.44;81.17;100073.44;124749;1102;104179;-81
2023/02/01 02:00:32;;;;;;;18.50;5.77;;;;;;;1.41;81.76;100070.65;124932;1102;101865;-81
2023/02/01 02:03:08;;;;;;;20.10;6.07;;;;;;;1.40;81.08;100066.30;125003;1102;101848;-80
2023/02/01 02:05:40;;;;;;;22.27;6.17;;;;;;;1.38;81.63;100072.16;124816;1102;102115;-81
2023/02/01 02:08:13;;;;;;;15.13;5.93;;;;;;;1.32;81.44;100067.47;124796;1102;101868;-80
2023/02/01 02:11:02;;;;;;;18.50;6.30;;;;;;;1.28;81.33;100073.25;124752;1102;104233;-81
2023/02/01 02:13:37;;;;;;;18.27;6.40;;;;;;;1.22;80.96;100076.31;124930;1102;102501;-81
2023/02/01 02:16:21;;;;;;;19.60;6.00;;;;;;;1.17;81.10;100072.54;124790;1102;104310;-81
2023/02/01 02:19:08;;;;;;;21.00;5.70;;;;;;;1.15;80.72;100079.27;124972;1102;102048;-81
2023/02/01 02:22:06;;;;;;;19.13;5.90;;;;;;;1.11;81.49;100081.55;124919;1102;106976;-81
2023/02/01 02:25:02;;;;;;;14.90;5.90;;;;;;;1.07;81.00;100081.34;124995;1102;104233;-80
2023/02/01 02:27:47;;;;;;;19.40;6.47;;;;;;;1.03;81.48;100079.38;125011;1102;104095;-80
2023/02/01 02:30:35;;;;;;;;;;;;;;;0.99;80.84;100082.53;125062;1102;103378;-81
2023/02/01 02:33:29;;;;;;;16.10;5.70;;;;;;;0.94;81.05;100077.87;124795;1102;102024;-81
2023/02/01 02:36:05;;;;;;;18.90;6.47;;;;;;;0.91;81.08;100078.55;124810;1102;104201;-79
2023/02/01 02:38:48;;;;;;;18.07;6.40;;;;;;;0.87;81.28;100080.04;125068;1101;104192;-80
2023/02/01 02:47:27;;;;;;;21.07;6.50;;;;;;;0.77;81.02;100085.36;125137;1102;102102;-78
2023/02/01 03:04:19;;;;;;;20.67;6.80;;;;;;;0.70;80.84;100085.72;124741;1106;104226;-80
2023/02/01 03:06:52;;;;;;;24.37;6.90;;;;;;;0.69;81.24;100082.25;124744;1105;104393;-80
2023/02/01 03:09:28;;;;;;;20.60;7.17;;;;;;;0.71;81.32;100078.08;124698;1105;102126;-81
2023/02/01 03:14:58;;;;;;;21.15;6.70;;;;;;;0.75;80.90;100073.12;124800;1102;104437;-80
2023/02/01 03:17:35;;;;;;;20.70;6.80;;;;;;;0.77;81.08;100074.15;124849;1102;104311;-81
2023/02/01 03:20:10;;;;;;;20.10;7.10;;;;;;;0.79;80.97;100069.97;124973;1102;104242;-81
2023/02/01 03:22:45;;;;;;;21.07;6.70;;;;;;;0.81;80.92;100069.30;124900;1102;111557;-81
2023/02/01 03:25:22;;;;;;;18.17;6.50;;;;;;;0.83;80.95;100064.23;124895;1102;104272;-81
2023/02/01 03:27:58;;;;;;;20.30;6.50;;;;;;;0.77;80.76;100068.98;124701;1102;101942;-78
2023/02/01 03:30:35;;;;;;;22.97;6.97;;;;;;;0.74;80.74;100071.36;124653;1102;104316;-79
2023/02/01 03:33:13;;;;;;;19.63;6.60;;;;;;;0.71;80.77;100074.61;124821;1102;101887;-81
2023/02/01 03:35:51;;;;;;;22.73;6.60;;;;;;;0.67;81.35;100075.19;124964;1102;101804;-81
2023/02/01 03:38:27;;;;;;;20.40;6.90;;;;;;;0.68;80.96;100075.29;124864;1102;104281;-81
2023/02/01 03:41:09;;;;;;;18.67;7.03;;;;;;;0.71;80.99;100067.75;124797;1102;102458;-79
2023/02/01 03:43:49;;;;;;;21.73;7.10;;;;;;;0.71;81.03;100065.17;124818;1102;102111;-78
2023/02/01 03:46:27;;;;;;;21.87;7.17;;;;;;;0.71;80.93;100070.33;124869;1102;102206;-81
2023/02/01 03:49:00;;;;;;;24.43;7.63;;;;;;;0.70;80.99;100077.98;124958;1102;101793;-82
2023/02/01 03:51:33;;;;;;;22.27;7.07;;;;;;;0.66;80.68;100071.72;124825;1102;104270;-81
2023/02/01 03:54:07;;;;;;;21.30;7.30;;;;;;;0.63;80.91;100066.34;124754;1102;104236;-81
2023/02/01 03:56:43;;;;;;;23.23;7.87;;;;;;;0.63;81.17;100066.34;124794;1102;104304;-81
2023/02/01 03:59:15;;;;;;;21.30;7.67;;;;;;;0.60;80.83;100066.13;124665;1102;104189;-81
2023/02/01 04:01:47;;;;;;;23.07;7.73;;;;;;;0.56;80.57;100074.45;124717;1102;101886;-84
2023/02/01 04:04:20;;;;;;;22.33;7.50;;;;;;;0.56;80.89;100084.77;124783;1102;102220;-84
2023/02/01 04:06:53;;;;;;;24.90;7.33;;;;;;;0.58;81.37;100078.05;124704;1102;102813;-84
2023/02/01 04:09:24;;;;;;;23.40;8.20;;;;;;;0.57;81.39;100076.25;124848;1102;101855;-83
2023/02/01 04:11:55;;;;;;;20.60;7.60;;;;;;;0.53;80.85;100076.82;124889;1101;104185;-84
2023/02/01 04:14:27;;;;;;;24.10;8.47;;;;;;;0.49;80.78;100072.26;124934;1102;104227;-78
2023/02/01 04:16:58;;;;;;;24.07;9.47;;;;;;;0.47;81.02;100068.69;124898;1102;102275;-79
2023/02/01 04:19:29;;;;;;;24.27;8.27;;;;;;;0.49;81.17;100078.30;124843;1102;102054;-84
2023/02/01 04:22:00;;;;;;;23.27;8.10;;;;;;;0.51;81.07;100075.83;124744;1101;101911;-83
2023/02/01 04:24:32;;;;;;;24.87;8.30;;;;;;;0.54;81.00;100076.92;124819;1102;104195;-82
2023/02/01 04:27:03;;;;;;;24.00;8.60;;;;;;;0.58;81.38;100074.55;124861;1102;104236;-82
2023/02/01 04:29:35;;;;;;;24.37;7.73;;;;;;;0.58;81.05;100077.14;124928;1102;101903;-82
2023/02/01 04:32:07;;;;;;;22.83;8.23;;;;;;;0.58;81.66;100085.80;124905;1102;104134;-83
2023/02/01 04:34:38;;;;;;;23.83;8.13;;;;;;;0.61;80.98;100080.84;124828;1102;102160;-82
2023/02/01 04:37:09;;;;;;;23.10;8.57;;;;;;;0.65;80.70;100079.36;124925;1102;102425;-83
2023/02/01 04:39:41;;;;;;;24.50;7.57;;;;;;;0.69;81.06;100082.25;124913;1102;104173;-83
2023/02/01 04:42:12;;;;;;;26.70;8.83;;;;;;;0.69;81.47;100084.84;124866;1102;102256;-82
2023/02/01 04:44:43;;;;;;;26.33;8.37;;;;;;;0.70;81.62;100086.64;124904;1102;104332;-83
2023/02/01 04:47:15;;;;;;;25.33;8.40;;;;;;;0.75;81.37;100086.03;124855;1102;102112;-78
2023/02/01 04:49:46;;;;;;;24.80;8.77;;;;;;;0.79;81.57;100088.05;124820;1102;102118;-84
2023/02/01 04:52:17;;;;;;;24.27;8.57;;;;;;;0.79;81.20;100088.94;124867;1102;104233;-83
2023/02/01 04:54:49;;;;;;;24.37;8.50;;;;;;;0.77;81.18;100090.53;124882;1102;102508;-81
2023/02/01 04:57:20;;;;;;;23.10;8.33;;;;;;;0.71;81.35;100087.52;124867;1102;104236;-82
2023/02/01 04:59:51;;;;;;;24.50;8.43;;;;;;;0.67;81.26;100088.09;124777;1102;104169;-82
2023/02/01 05:02:22;;;;;;;27.07;8.93;;;;;;;0.66;80.95;100083.74;124924;1102;104193;-80
2023/02/01 05:04:55;;;;;;;24.50;8.60;;;;;;;0.63;81.73;100071.51;124778;1102;111279;-82
2023/02/01 05:07:26;;;;;;;25.30;8.90;;;;;;;0.63;81.62;100074.09;124872;1102;104363;-82
2023/02/01 05:09:58;;;;;;;20.73;7.87;;;;;;;0.61;81.42;100075.69;124895;1102;102073;-81
2023/02/01 05:15:18;;;;;;;25.93;9.63;;;;;;;0.58;81.51;100070.31;124795;1102;101921;-81
2023/02/01 05:17:49;;;;;;;22.23;7.87;;;;;;;0.55;81.69;100062.35;124765;1102;104281;-80
2023/02/01 05:20:21;;;;;;;22.23;8.20;;;;;;;0.51;81.61;100076.75;124902;1102;101909;-79
2023/02/01 05:22:52;;;;;;;25.97;8.70;;;;;;;0.48;81.33;100081.70;124862;1102;104156;-82
2023/02/01 05:25:23;;;;;;;24.50;8.80;;;;;;;0.44;81.36;100068.48;124867;1102;104259;-81
2023/02/01 05:27:55;;;;;;;30.23;8.83;;;;;;;0.43;81.32;100071.83;125022;1102;104293;-79
2023/02/01 05:30:26;;;;;;;25.40;9.37;;;;;;;0.43;81.84;100069.25;124880;1102;104650;-78
2023/02/01 05:32:58;;;;;;;22.83;9.50;;;;;;;0.41;81.62;100070.84;124830;1102;101832;-79
2023/02/01 05:35:29;;;;;;;23.00;8.33;;;;;;;0.40;81.46;100072.51;124832;1102;104326;-78
2023/02/01 05:38:00;;;;;;;21.87;7.87;;;;;;;0.40;82.07;100069.04;124757;1102;102176;-79
2023/02/01 05:40:32;;;;;;;23.20;8.60;;;;;;;0.39;81.74;100075.90;124907;1102;102594;-80
2023/02/01 05:43:03;;;;;;;25.13;9.40;;;;;;;0.40;81.67;100076.78;124763;1102;102014;-81
2023/02/01 05:45:34;;;;;;;29.03;9.33;;;;;;;0.40;81.73;100072.51;124797;1102;104188;-81
2023/02/01 05:48:06;;;;;;;26.23;9.20;;;;;;;0.42;81.22;100081.27;124815;1102;104345;-77
2023/02/01 05:50:37;;;;;;;28.23;9.50;;;;;;;0.46;81.67;100066.88;124796;1102;104251;-77
2023/02/01 05:53:14;;;;;;;29.10;10.10;;;;;;;0.50;81.43;100080.11;124834;1102;102258;-81
2023/02/01 05:55:45;;;;;;;30.67;9.60;;;;;;;0.52;81.08;100078.52;124799;1102;104233;-78
2023/02/01 05:58:16;;;;;;;25.10;10.00;;;;;;;0.56;81.85;100071.87;124893;1101;104220;-78
2023/02/01 06:00:47;;;;;;;26.33;10.37;;;;;;;0.65;82.15;100069.91;124845;1102;104038;-79
2023/02/01 06:03:19;;;;;;;23.50;9.67;;;;;;;0.76;82.23;100073.23;124850;1102;104124;-78
2023/02/01 06:05:50;;;;;;;27.27;10.27;;;;;;;0.88;82.05;100078.34;124963;1102;102917;-77
2023/02/01 06:08:24;;;;;;;28.30;10.63;;;;;;;1.01;82.84;100080.97;124827;1102;103342;-76
2023/02/01 06:11:02;;;;;;;26.45;10.00;;;;;;;1.12;81.76;100075.59;124746;1102;104192;-73
2023/02/01 06:13:34;;;;;;;26.37;10.33;;;;;;;1.24;81.99;100074.71;124636;1102;102086;-76
2023/02/01 06:16:07;;;;;;;27.23;10.07;;;;;;;1.35;82.03;100061.61;124511;1102;104192;-78
2023/02/01 06:18:38;;;;;;;28.57;9.93;;;;;;;1.46;82.15;100063.20;124622;1102;102192;-77
2023/02/01 06:21:23;;;;;;;29.27;9.50;;;;;;;1.59;82.41;100070.05;124653;1102;102164;-76
2023/02/01 06:23:54;;;;;;;27.63;10.07;;;;;;;1.71;82.11;100073.42;125027;1102;104192;-76
2023/02/01 06:26:26;;;;;;;29.87;9.73;;;;;;;1.81;82.10;100080.10;124811;1102;102620;-76
2023/02/01 06:28:59;;;;;;;28.80;10.40;;;;;;;1.86;82.03;100075.22;124852;1102;102504;-76
2023/02/01 06:31:32;;;;;;;23.57;10.05;;;;;;;1.92;82.21;100079.08;124933;1102;103058;-76
2023/02/01 06:34:03;;;;;;;26.13;10.30;;;;;;;2.00;82.34;100078.69;124940;1102;103255;-76
2023/02/01 06:36:36;;;;;;;24.93;9.90;;;;;;;2.01;81.73;100083.03;124881;1102;104242;-76
2023/02/01 06:39:09;;;;;;;26.73;10.60;;;;;;;2.03;81.46;100082.34;125002;1102;104328;-77
2023/02/01 06:41:46;;;;;;;28.17;10.43;;;;;;;2.10;81.76;100084.53;124868;1102;104195;-74
2023/02/01 06:44:19;;;;;;;27.97;10.60;;;;;;;2.19;82.18;100089.38;124862;1102;103127;-79
2023/02/01 06:46:52;;;;;;;26.30;10.40;;;;;;;2.23;81.97;100077.50;124935;1102;104123;-76
2023/02/01 06:49:25;;;;;;;28.10;10.27;;;;;;;2.28;80.99;100074.41;124911;1102;103012;-76
2023/02/01 06:51:59;;;;;;;31.40;9.88;;;;;;;2.33;81.87;100067.81;124865;1102;102724;-76
2023/02/01 06:54:33;;;;;;;23.70;9.90;;;;;;;2.43;81.18;100070.97;124901;1102;103009;-77
2023/02/01 06:57:07;;;;;;;29.55;10.13;;;;;;;2.46;81.39;100074.66;124946;1102;102879;-75
2023/02/01 06:59:38;;;;;;;31.07;10.55;;;;;;;2.53;81.61;100075.03;124915;1102;104204;-76
2023/02/01 07:02:13;;;;;;;30.60;10.70;;;;;;;2.59;82.11;100076.30;125041;1102;102574;-76
2023/02/01 07:04:45;;;;;;;25.93;9.77;;;;;;;2.64;81.53;100069.69;124983;1102;102553;-75
2023/02/01 07:07:22;;;;;;;30.07;10.73;;;;;;;2.70;81.76;100076.95;124910;1102;102505;-76
2023/02/01 07:09:54;;;;;;;31.07;11.40;;;;;;;2.75;81.09;100080.70;124816;1102;102568;-76
2023/02/01 07:12:27;;;;;;;23.85;10.05;;;;;;;2.76;80.96;100077.31;125155;1102;102609;-77
2023/02/01 07:14:59;;;;;;;27.57;9.50;;;;;;;2.80;81.06;100076.67;125209;1102;102982;-78
2023/02/01 07:17:30;;;;;;;25.50;9.73;;;;;;;2.85;81.60;100079.54;125274;1102;103492;-76
2023/02/01 07:20:03;;;;;;;26.37;9.50;;;;;;;2.87;81.83;100078.84;125276;1102;104136;-77
2023/02/01 07:22:43;;;;;;;23.50;8.77;;;;;;;2.90;81.37;100078.14;125355;1102;102466;-77
2023/02/01 07:25:15;;;;;;;22.63;7.53;;;;;;;2.93;81.76;100070.55;125458;1102;102991;-77
2023/02/01 07:27:47;;;;;;;21.27;8.53;;;;;;;2.97;81.58;100063.84;125435;1102;102915;-77
2023/02/01 07:30:19;;;;;;;23.23;8.33;;;;;;;2.99;81.00;100068.31;125299;1102;103451;-79
2023/02/01 07:33:02;;;;;;;22.93;8.07;;;;;;;3.10;81.19;100071.55;125165;1102;102508;-78
2023/02/01 07:36:05;;;;;;;22.97;7.90;;;;;;;3.17;80.92;100070.19;125305;1102;102499;-76
2023/02/01 07:41:37;;;;;;;26.50;9.13;;;;;;;3.33;81.00;100064.19;125764;1102;102463;-79
2023/02/01 07:44:10;;;;;;;19.73;7.60;;;;;;;3.41;81.08;100058.64;125482;1102;102875;-78
2023/02/01 07:46:43;;;;;;;24.80;8.50;;;;;;;3.52;80.24;100061.85;125449;1102;104133;-78
2023/02/01 07:49:14;;;;;;;21.67;7.80;;;;;;;3.62;81.25;100055.47;125133;1102;103759;-78
2023/02/01 07:51:53;;;;;;;21.33;7.53;;;;;;;3.71;81.03;100049.88;125139;1102;104198;-77
2023/02/01 07:54:26;;;;;;;21.43;8.20;;;;;;;3.75;80.78;100055.33;125093;1102;103954;-77
2023/02/01 07:57:01;;;;;;;24.43;8.53;;;;;;;3.80;80.80;100062.49;125081;1102;102568;-81
2023/02/01 07:59:33;;;;;;;23.27;7.87;;;;;;;3.83;80.81;100058.35;125002;1101;102378;-79
2023/02/01 08:02:07;;;;;;;20.20;7.93;;;;;;;3.83;80.30;100053.16;125091;1102;103632;-79
2023/02/01 08:04:37;;;;;;;;;;;;;;;3.87;79.60;100054.25;124895;1102;102907;-80
2023/02/01 08:07:09;;;;;;;17.73;7.03;;;;;;;3.92;80.14;100064.05;125000;1102;102033;-80
2023/02/01 08:09:41;;;;;;;17.97;6.67;;;;;;;3.96;79.88;100055.64;124997;1102;102534;-79
2023/02/01 08:12:14;;;;;;;16.37;6.37;;;;;;;4.01;79.20;100048.11;124952;1102;104217;-80
2023/02/01 08:14:45;;;;;;;21.33;5.93;;;;;;;4.08;79.33;100059.70;124908;1102;102326;-78
2023/02/01 08:17:20;;;;;;;16.23;6.43;;;;;;;4.12;80.08;100059.08;125017;1102;103782;-77
2023/02/01 08:19:58;;;;;;;;;;;;;;;4.21;78.61;100056.09;125093;1102;102305;-78
2023/02/01 08:22:34;;;;;;;21.50;6.87;;;;;;;4.26;79.84;100057.23;124939;1102;103073;-79
2023/02/01 08:25:07;;;;;;;20.70;6.33;;;;;;;4.31;79.43;100058.36;124778;1102;104240;-77
2023/02/01 08:27:39;;;;;;;22.50;7.63;;;;;;;4.34;79.34;100048.13;124953;1101;104123;-76
2023/02/01 08:30:13;;;;;;;21.73;7.50;;;;;;;4.36;79.16;100050.81;125034;1102;103109;-78
2023/02/01 08:32:47;;;;;;;20.82;6.72;;;;;;;4.32;78.62;100047.16;124865;1101;104156;-77
2023/02/01 08:35:19;;;;;;;20.50;6.40;;;;;;;4.38;78.76;100043.98;124865;1102;102313;-77
2023/02/01 08:37:52;;;;;;;20.10;5.97;;;;;;;4.46;77.87;100042.70;124848;1102;104198;-77
2023/02/01 08:40:23;;;;;;;28.97;8.50;;;;;;;4.51;78.70;100038.63;124970;1102;104277;-76
2023/02/01 08:42:55;;;;;;;22.70;7.47;;;;;;;4.57;78.08;100041.55;124901;1102;102618;-75
2023/02/01 08:45:29;;;;;;;18.73;6.77;;;;;;;4.65;78.40;100029.84;124900;1102;103243;-76
2023/02/01 08:48:00;;;;;;;23.17;6.67;;;;;;;4.71;78.73;100024.08;124823;1102;102268;-76
2023/02/01 08:50:32;;;;;;;20.63;7.10;;;;;;;4.78;78.26;100020.96;124952;1102;104207;-76
2023/02/01 08:53:04;;;;;;;19.17;6.80;;;;;;;4.88;77.68;100027.55;124840;1102;102878;-78
2023/02/01 08:55:35;;;;;;;40.73;8.23;;;;;;;4.97;78.19;100021.89;124854;1102;104137;-76
2023/02/01 08:58:07;;;;;;;19.37;7.13;;;;;;;5.00;77.49;100024.65;124787;1101;103192;-76
2023/02/01 09:00:40;;;;;;;23.17;7.00;;;;;;;5.06;77.79;100018.88;124950;1102;102403;-76
2023/02/01 09:03:13;;;;;;;20.03;6.90;;;;;;;5.08;77.68;100010.34;124815;1102;102917;-79
2023/02/01 09:05:45;;;;;;;20.83;6.83;;;;;;;5.13;77.56;100008.86;124944;1102;102988;-76
2023/02/01 09:08:18;;;;;;;24.63;7.00;;;;;;;5.18;77.43;100009.97;124929;1102;102354;-77
2023/02/01 09:10:50;;;;;;;25.30;7.08;;;;;;;5.26;77.02;99999.94;124978;1102;102157;-78
2023/02/01 09:13:22;;;;;;;25.07;7.23;;;;;;;5.30;77.05;99995.77;125139;1102;103169;-77
2023/02/01 09:15:54;;;;;;;21.33;7.30;;;;;;;5.29;76.42;99986.20;124825;1102;102956;-76
2023/02/01 09:18:26;;;;;;;22.37;7.20;;;;;;;5.31;76.08;99982.83;125031;1102;103462;-76
2023/02/01 09:21:04;;;;;;;21.50;7.13;;;;;;;5.35;76.66;99974.38;124901;1102;104221;-76
2023/02/01 09:23:36;;;;;;;22.73;7.70;;;;;;;5.46;76.38;99977.48;125191;1102;102857;-80
2023/02/01 09:26:08;;;;;;;44.43;10.03;;;;;;;5.52;76.33;99980.38;125034;1102;103664;-79
2023/02/01 09:28:40;;;;;;;73.97;12.53;;;;;;;5.63;76.04;99973.09;125066;1102;102472;-80
2023/02/01 09:31:12;;;;;;;27.80;7.93;;;;;;;5.70;76.25;99972.56;125198;1102;102126;-84
2023/02/01 09:33:46;;;;;;;16.00;6.10;;;;;;;5.70;76.51;99967.36;125213;1102;104137;-78
2023/02/01 09:36:19;;;;;;;75.83;12.73;;;;;;;5.70;75.70;99964.75;124925;1102;103877;-79
2023/02/01 09:38:51;;;;;;;27.05;7.47;;;;;;;5.75;75.62;99965.84;125214;1100;102914;-79
2023/02/01 09:41:45;;;;;;;19.63;7.77;;;;;;;5.79;75.35;99965.98;125278;1102;104201;-83
2023/02/01 09:44:35;;;;;;;47.53;9.73;;;;;;;5.78;75.33;99956.39;125131;1102;104303;-79
2023/02/01 09:47:15;;;;;;;245.80;38.87;;;;;;;5.80;75.19;99954.73;124862;1102;104297;-76
2023/02/01 09:49:58;;;;;;;29.30;7.12;;;;;;;5.83;74.93;99950.58;124955;1101;103033;-77
2023/02/01 09:52:37;;;;;;;28.30;7.17;;;;;;;5.85;74.31;99946.33;124976;1102;103345;-79
2023/02/01 09:55:22;;;;;;;20.60;6.07;;;;;;;5.89;74.51;99944.74;125105;1102;104169;-74
2023/02/01 09:58:02;;;;;;;45.90;8.90;;;;;;;5.88;73.77;99950.80;125847;1102;101932;-75
2023/02/01 10:00:42;;;;;;;23.70;6.50;;;;;;;5.91;74.16;99950.93;125983;1102;102374;-75
2023/02/01 10:03:31;;;;;;;14.90;5.80;;;;;;;5.84;73.10;99946.25;125273;1102;102876;-74
2023/02/01 10:06:34;;;;;;;14.30;5.73;;;;;;;5.79;73.30;99952.97;125120;1102;104293;-77
2023/02/01 10:09:23;;;;;;;19.67;6.43;;;;;;;5.74;72.50;99940.63;125068;1101;104412;-75
2023/02/01 10:12:34;;;;;;;19.30;6.40;;;;;;;5.73;72.41;99946.67;125104;1102;103129;-78
2023/02/01 10:15:23;;;;;;;17.43;6.77;;;;;;;5.74;72.15;99947.55;125166;1102;104219;-78
2023/02/01 10:18:13;;;;;;;16.07;6.40;;;;;;;5.76;72.67;99946.81;124842;1101;102471;-78
2023/02/01 10:20:57;;;;;;;14.27;5.40;;;;;;;5.69;71.13;99942.13;125189;1102;103684;-78
2023/02/01 10:23:58;;;;;;;15.13;5.12;;;;;;;5.64;71.71;99938.44;125147;1102;102861;-76
2023/02/01 10:26:47;;;;;;;11.90;5.23;;;;;;;5.58;71.51;99949.44;125448;1102;102944;-78
2023/02/01 10:29:26;;;;;;;13.80;6.00;;;;;;;5.56;72.21;99943.28;125678;1102;103209;-76
2023/02/01 10:31:59;;;;;;;15.00;5.70;;;;;;;5.51;71.85;99946.48;125209;1102;102291;-78
2023/02/01 10:34:39;;;;;;;18.67;6.63;;;;;;;5.49;71.73;99936.00;125137;1102;104288;-77
2023/02/01 10:37:24;;;;;;;15.57;5.60;;;;;;;5.45;71.62;99943.59;125478;1102;102402;-75
2023/02/01 10:40:13;;;;;;;15.97;5.90;;;;;;;5.42;71.90;99949.52;124967;1102;104303;-78
2023/02/01 10:43:10;;;;;;;16.53;5.90;;;;;;;5.40;71.72;99941.64;125053;1102;111289;-78
2023/02/01 10:45:52;;;;;;;18.23;6.17;;;;;;;5.43;71.97;99955.64;124956;1102;103440;-78
2023/02/01 10:48:47;;;;;;;15.07;6.27;;;;;;;5.41;71.88;99958.17;125682;1101;103862;-78
2023/02/01 10:51:32;;;;;;;15.17;5.90;;;;;;;5.39;72.22;99947.69;125033;1102;103888;-76
2023/02/01 10:54:17;;;;;;;16.07;6.33;;;;;;;5.37;72.50;99946.70;125479;1102;102945;-76
2023/02/01 10:56:53;;;;;;;21.97;8.87;;;;;;;5.39;72.37;99939.88;125105;1100;102806;-76
2023/02/01 10:59:29;;;;;;;17.70;7.20;;;;;;;5.39;72.70;99931.16;125060;1102;102059;-75
2023/02/01 11:02:26;;;;;;;18.73;7.40;;;;;;;5.40;72.90;99918.23;124653;1106;102445;-75
2023/02/01 11:05:11;;;;;;;18.17;7.00;;;;;;;5.47;72.80;99915.91;124937;1102;103204;-76
2023/02/01 11:07:50;;;;;;;15.80;6.60;;;;;;;5.52;73.03;99919.64;124630;1105;102937;-76
2023/02/01 11:10:37;;;;;;;17.07;6.53;;;;;;;5.57;73.05;99916.41;125096;1102;102384;-78
2023/02/01 11:13:24;;;;;;;18.40;6.83;;;;;;;5.64;73.07;99915.02;125036;1102;104217;-76
2023/02/01 11:16:02;;;;;;;120.17;19.23;;;;;;;5.68;72.89;99909.10;125106;1102;102819;-76
2023/02/01 11:18:36;;;;;;;44.97;12.10;;;;;;;5.75;72.92;99918.98;125036;1102;102451;-76
2023/02/01 11:21:10;;;;;;;20.10;8.50;;;;;;;5.86;72.27;99908.15;125025;1102;102965;-76
2023/02/01 11:23:47;;;;;;;21.05;7.87;;;;;;;5.93;72.69;99907.61;124930;1102;104233;-76
2023/02/01 11:26:27;;;;;;;42.10;9.33;;;;;;;6.03;72.69;99902.03;124934;1102;104227;-77
2023/02/01 11:29:03;;;;;;;19.23;7.50;;;;;;;6.08;72.58;99894.42;125102;1102;102968;-77
2023/02/01 11:31:37;;;;;;;18.63;7.37;;;;;;;6.15;72.85;99888.64;116288;1102;10000893;-76
2023/02/01 11:34:22;;;;;;;14.67;6.80;;;;;;;6.18;72.37;99887.89;124989;1102;102856;-80
2023/02/01 11:36:59;;;;;;;19.83;7.23;;;;;;;6.21;72.60;99886.30;125135;1102;104201;-75
2023/02/01 11:39:33;;;;;;;16.80;6.80;;;;;;;6.19;72.23;99897.50;124974;1102;103179;-75
2023/02/01 11:42:16;;;;;;;18.37;7.00;;;;;;;6.13;71.71;99900.72;125043;1102;102951;-75
2023/02/01 11:44:51;;;;;;;108.47;17.87;;;;;;;6.07;72.01;99905.66;126035;1102;110831;-75
2023/02/01 11:47:28;;;;;;;28.43;7.57;;;;;;;6.04;72.24;99905.52;125994;1102;102217;-76
2023/02/01 11:50:17;;;;;;;17.57;6.80;;;;;;;6.02;71.95;99912.39;126008;1102;102791;-78
2023/02/01 11:53:30;;;;;;;58.80;13.20;;;;;;;5.99;72.03;99907.92;125954;1101;102686;-76
2023/02/01 11:56:12;;;;;;;22.55;7.05;;;;;;;5.95;71.94;99903.35;125919;1102;102719;-75
2023/02/01 11:59:02;;;;;;;15.10;6.46;;;;;;;5.94;72.01;99909.41;117189;1101;10001276;-76
2023/02/01 12:01:56;;;;;;;34.03;9.33;;;;;;;5.95;71.68;99900.75;125933;1102;102295;-76
2023/02/01 12:04:57;;;;;;;22.05;7.62;;;;;;;5.95;71.66;99900.75;125934;1101;102165;-76
2023/02/01 12:07:41;;;;;;;36.93;9.87;;;;;;;5.96;71.29;99899.06;125798;1102;101899;-75
2023/02/01 12:10:21;;;;;;;;;;;;;;;5.98;69.75;99893.11;126039;1102;103365;-75
2023/02/01 12:13:01;;;;;;;19.40;7.33;;;;;;;6.01;70.65;99900.17;125933;1101;102060;-75
2023/02/01 12:15:51;;;;;;;19.80;6.77;;;;;;;6.05;71.01;99891.69;125900;1102;107130;-74
2023/02/01 12:18:42;;;;;;;22.33;6.47;;;;;;;6.06;70.49;99894.36;125909;1102;102753;-76
2023/02/01 12:21:56;;;;;;;21.67;7.10;;;;;;;5.99;70.77;99891.41;125995;1102;102557;-76